Terminal Aerodrome Forecast
Issued by NWS

Home | Current Version | Previous Version | Text Only | Print | Product List | Glossary Off
Versions: 1 2 3 4 5 6 7 8 9 10 11 12 13 14 15 16 17 18 19

000
FTUS43 KGRB 280723 AAA
TAFAUW
TAF AMD
KAUW 280723Z 2807/2906 03004KT 6SM BR FEW002 SCT015
      TEMPO 2807/2809 3SM BR SCT002 BKN015
     FM280900 36003KT 3SM BR SCT002
      TEMPO 2809/2812 1/2SM FG BKN002
     FM281400 05006KT P6SM SKC=

USA.gov is the U.S. government's official web portal to all federal, state and local government web resources and services.